Prue, Oklahoma
Current Conditions -  °F | °C
As of 12:35 AM on Wednesday 26 Nov 2014 (Local Time) from KOWP Reporting Station
Clear Clear  
Wind Chill: 36°   Ceiling: Unl
Heat Index: 41°   Visibility: 10mi
Dew Point: 26°   Wind: 7mph
Humidity: 55%   Direction: 140°SE
Pressure: 30.01"   Gusts: NA
Location:  36.24°N, 96.32°W
Report Text: KOWP 260635Z AUTO 14006KT 10SM CLR 05/M03 A3001 RMK AO2 T00491035
Loading
Personal Weather Stations






























Interactive Weather Map New forecast layout! Learn more

10-Day Weather Forecast

Advertisements
Track Severe Weather on mobile